Time;durP1;ratioP1;P1;durP2;ratioP2;P2;SDS_P1;SDS_P2;PMS_P1;PMS_P2;Temp;Humidity;BMP_temperature;BMP_pressure;BME280_temperature;BME280_humidity;BME280_pressure;Samples;Min_cycle;Max_cycle;Signal;HPM_P1;HPM_P2
2024/01/18 00:00:20;;;;;;;16.07;11.67;;;;;;;;;;5072749;28;20505;-48
2024/01/18 00:02:47;;;;;;;15.07;11.87;;;;;;;;;;5070690;28;20238;-48
2024/01/18 00:05:13;;;;;;;14.67;11.00;;;;;;;;;;5073283;28;20442;-48
2024/01/18 00:07:39;;;;;;;13.03;11.07;;;;;;;;;;5073078;28;20452;-48
2024/01/18 00:10:06;;;;;;;14.33;11.77;;;;;;;;;;5073679;28;20199;-47
2024/01/18 00:12:35;;;;;;;12.27;10.80;;;;;;;;;;5073451;28;20609;-48
2024/01/18 00:15:01;;;;;;;18.43;12.23;;;;;;;;;;5073603;28;20426;-48
2024/01/18 00:17:27;;;;;;;16.97;11.60;;;;;;;;;;5073099;28;20523;-48
2024/01/18 00:19:54;;;;;;;16.73;11.83;;;;;;;;;;5073514;28;20202;-48
2024/01/18 00:22:20;;;;;;;15.63;11.37;;;;;;;;;;5072791;28;20203;-48
2024/01/18 00:24:46;;;;;;;18.23;12.80;;;;;;;;;;5074700;28;20445;-48
2024/01/18 00:27:12;;;;;;;14.50;11.90;;;;;;;;;;5073214;28;20203;-49
2024/01/18 00:29:38;;;;;;;16.37;11.53;;;;;;;;;;5072804;28;20203;-49
2024/01/18 00:32:04;;;;;;;13.70;11.30;;;;;;;;;;5072679;28;20673;-48
2024/01/18 00:34:30;;;;;;;17.23;11.30;;;;;;;;;;5073102;28;20438;-48
2024/01/18 00:36:58;;;;;;;12.87;11.43;;;;;;;;;;5073617;28;20491;-47
2024/01/18 00:39:24;;;;;;;14.70;10.70;;;;;;;;;;5072611;28;20614;-47
2024/01/18 00:41:50;;;;;;;13.90;11.13;;;;;;;;;;5072438;28;20438;-47
2024/01/18 00:44:16;;;;;;;14.10;12.00;;;;;;;;;;5072784;28;20446;-47
2024/01/18 00:46:42;;;;;;;15.57;11.97;;;;;;;;;;5072687;28;20442;-47
2024/01/18 00:49:08;;;;;;;12.13;10.80;;;;;;;;;;5073421;28;20200;-47
2024/01/18 00:51:34;;;;;;;13.93;11.40;;;;;;;;;;5072375;28;20450;-47
2024/01/18 00:54:02;;;;;;;13.97;11.50;;;;;;;;;;5072590;28;20224;-47
2024/01/18 00:56:28;;;;;;;14.70;11.93;;;;;;;;;;5072478;28;20452;-47
2024/01/18 00:58:54;;;;;;;15.10;10.97;;;;;;;;;;5072417;28;20991;-47
2024/01/18 01:01:20;;;;;;;17.80;11.63;;;;;;;;;;5072768;28;20464;-47
2024/01/18 01:03:46;;;;;;;13.20;10.90;;;;;;;;;;5072751;28;20727;-47
2024/01/18 01:06:12;;;;;;;13.20;10.87;;;;;;;;;;5072571;28;20430;-47
2024/01/18 01:08:39;;;;;;;15.13;11.63;;;;;;;;;;5072491;28;20200;-47
2024/01/18 01:11:10;;;;;;;14.07;12.37;;;;;;;;;;5072224;28;20943;-47
2024/01/18 01:13:36;;;;;;;14.10;11.53;;;;;;;;;;5071853;28;20473;-47
2024/01/18 01:16:02;;;;;;;16.73;11.70;;;;;;;;;;5071967;28;20422;-47
2024/01/18 01:18:28;;;;;;;12.97;11.57;;;;;;;;;;5071845;28;20231;-47
2024/01/18 01:20:54;;;;;;;12.63;10.80;;;;;;;;;;5071849;28;20473;-47
2024/01/18 01:23:20;;;;;;;16.77;10.87;;;;;;;;;;5071729;28;20196;-47
2024/01/18 01:25:46;;;;;;;17.87;12.33;;;;;;;;;;5071786;28;20422;-47
2024/01/18 01:28:13;;;;;;;14.40;11.33;;;;;;;;;;5071930;28;20437;-47
2024/01/18 01:30:39;;;;;;;12.73;11.37;;;;;;;;;;5071793;28;20192;-47
2024/01/18 01:33:05;;;;;;;16.03;11.30;;;;;;;;;;5071716;28;21006;-47
2024/01/18 01:35:31;;;;;;;12.93;11.43;;;;;;;;;;5071726;28;20199;-47
2024/01/18 01:37:57;;;;;;;13.97;11.43;;;;;;;;;;5071877;28;20438;-47
2024/01/18 01:40:23;;;;;;;14.27;11.47;;;;;;;;;;5071598;28;20620;-47
2024/01/18 01:42:49;;;;;;;14.03;12.03;;;;;;;;;;5071550;28;20437;-47
2024/01/18 01:45:16;;;;;;;16.00;11.67;;;;;;;;;;5071781;28;20218;-47
2024/01/18 01:47:42;;;;;;;16.17;12.07;;;;;;;;;;5071669;28;20200;-47
2024/01/18 01:50:08;;;;;;;15.37;12.50;;;;;;;;;;5071554;28;20801;-47
2024/01/18 01:52:35;;;;;;;14.10;11.83;;;;;;;;;;5070478;28;20226;-48
2024/01/18 01:55:02;;;;;;;15.87;12.70;;;;;;;;;;5071480;28;20981;-47
2024/01/18 01:57:29;;;;;;;18.57;12.07;;;;;;;;;;5071631;28;20446;-47
2024/01/18 01:59:55;;;;;;;13.17;11.07;;;;;;;;;;5071509;28;20434;-47
2024/01/18 02:02:23;;;;;;;16.33;12.37;;;;;;;;;;5071575;28;20441;-47
2024/01/18 02:04:49;;;;;;;18.97;13.07;;;;;;;;;;5071479;28;20924;-47
2024/01/18 02:07:15;;;;;;;19.00;13.27;;;;;;;;;;5071446;28;20468;-48
2024/01/18 02:09:41;;;;;;;14.93;11.50;;;;;;;;;;5071314;28;20494;-48
2024/01/18 02:12:08;;;;;;;16.93;13.20;;;;;;;;;;5071194;28;20534;-48
2024/01/18 02:14:35;;;;;;;17.90;12.60;;;;;;;;;;5071190;28;20859;-47
2024/01/18 02:17:01;;;;;;;15.73;12.57;;;;;;;;;;5071385;28;20454;-48
2024/01/18 02:19:28;;;;;;;16.97;12.47;;;;;;;;;;5071254;28;20430;-47
2024/01/18 02:21:54;;;;;;;17.93;13.83;;;;;;;;;;5071108;28;20928;-48
2024/01/18 02:24:21;;;;;;;14.63;11.90;;;;;;;;;;5071138;28;20449;-48
2024/01/18 02:26:48;;;;;;;17.47;13.43;;;;;;;;;;5071181;28;20210;-48
2024/01/18 02:29:14;;;;;;;16.03;13.53;;;;;;;;;;5071346;28;20450;-48
2024/01/18 02:31:40;;;;;;;15.30;12.17;;;;;;;;;;5071075;28;20448;-48
2024/01/18 02:34:09;;;;;;;16.23;12.50;;;;;;;;;;5071080;28;20721;-47
2024/01/18 02:36:34;;;;;;;17.37;13.13;;;;;;;;;;5070974;28;20580;-48
2024/01/18 02:39:01;;;;;;;16.57;13.23;;;;;;;;;;5071230;28;20436;-48
2024/01/18 02:41:27;;;;;;;14.87;12.27;;;;;;;;;;5071065;28;20199;-48
2024/01/18 02:43:54;;;;;;;14.27;12.77;;;;;;;;;;5070884;28;20926;-47
2024/01/18 02:46:20;;;;;;;16.87;12.27;;;;;;;;;;5070994;28;20488;-48
2024/01/18 02:48:46;;;;;;;16.60;14.23;;;;;;;;;;5071208;28;20465;-48
2024/01/18 02:51:12;;;;;;;19.07;14.07;;;;;;;;;;5071136;28;20287;-48
2024/01/18 02:53:38;;;;;;;17.60;13.80;;;;;;;;;;5070758;28;20472;-47
2024/01/18 02:56:05;;;;;;;18.97;14.33;;;;;;;;;;5071024;28;20442;-48
2024/01/18 02:58:31;;;;;;;19.87;15.67;;;;;;;;;;5070825;28;20670;-48
2024/01/18 03:00:58;;;;;;;20.10;14.70;;;;;;;;;;5071012;28;20854;-48
2024/01/18 03:03:25;;;;;;;17.30;14.10;;;;;;;;;;5071863;28;20433;-48
2024/01/18 03:05:51;;;;;;;15.93;14.07;;;;;;;;;;5074616;28;20516;-48
2024/01/18 03:08:17;;;;;;;17.37;13.77;;;;;;;;;;5074441;28;20444;-48
2024/01/18 03:10:43;;;;;;;16.20;13.40;;;;;;;;;;5074490;28;20433;-48
2024/01/18 03:13:09;;;;;;;17.20;14.47;;;;;;;;;;5073951;28;20486;-48
2024/01/18 03:15:35;;;;;;;17.13;13.90;;;;;;;;;;5074177;28;20665;-48
2024/01/18 03:18:02;;;;;;;17.83;14.33;;;;;;;;;;5074255;28;20453;-48
2024/01/18 03:20:28;;;;;;;17.33;13.53;;;;;;;;;;5074254;28;20203;-48
2024/01/18 03:22:54;;;;;;;20.33;14.30;;;;;;;;;;5074036;28;20430;-48
2024/01/18 03:25:20;;;;;;;17.23;13.87;;;;;;;;;;5074034;28;20301;-48
2024/01/18 03:27:46;;;;;;;16.83;13.90;;;;;;;;;;5073923;28;20521;-48
2024/01/18 03:30:12;;;;;;;17.57;13.40;;;;;;;;;;5074073;28;20700;-48
2024/01/18 03:32:38;;;;;;;19.73;15.23;;;;;;;;;;5073757;28;20565;-48
2024/01/18 03:35:06;;;;;;;19.93;16.07;;;;;;;;;;5073895;28;20441;-48
2024/01/18 03:37:32;;;;;;;19.43;15.23;;;;;;;;;;5073864;28;20195;-48
2024/01/18 03:39:58;;;;;;;22.20;16.10;;;;;;;;;;5074056;28;20511;-48
2024/01/18 03:42:24;;;;;;;20.60;16.83;;;;;;;;;;5073888;28;20206;-48
2024/01/18 03:44:51;;;;;;;19.83;16.37;;;;;;;;;;5073789;28;20862;-47
2024/01/18 03:47:16;;;;;;;21.03;16.33;;;;;;;;;;5073775;28;20487;-48
2024/01/18 03:49:43;;;;;;;22.57;16.67;;;;;;;;;;5073429;28;20438;-48
2024/01/18 03:52:10;;;;;;;19.50;15.70;;;;;;;;;;5073461;28;20525;-48
2024/01/18 03:54:36;;;;;;;21.30;16.30;;;;;;;;;;5073477;28;20430;-48
2024/01/18 03:57:02;;;;;;;19.60;15.70;;;;;;;;;;5073584;28;20843;-48
2024/01/18 03:59:29;;;;;;;24.23;17.03;;;;;;;;;;5073465;28;20430;-48
2024/01/18 04:01:56;;;;;;;22.73;16.80;;;;;;;;;;5073540;28;20253;-48
2024/01/18 04:04:23;;;;;;;20.47;17.10;;;;;;;;;;5073357;28;20621;-48
2024/01/18 04:06:49;;;;;;;22.17;16.77;;;;;;;;;;5073203;28;20434;-48
2024/01/18 04:09:16;;;;;;;18.83;16.27;;;;;;;;;;5073561;28;20453;-48
2024/01/18 04:11:42;;;;;;;21.27;15.70;;;;;;;;;;5073033;28;20481;-48
2024/01/18 04:14:08;;;;;;;19.60;15.73;;;;;;;;;;5073022;28;20994;-47
2024/01/18 04:16:34;;;;;;;20.10;15.50;;;;;;;;;;5072286;28;20440;-48
2024/01/18 04:19:00;;;;;;;17.97;15.93;;;;;;;;;;5073220;28;20434;-48
2024/01/18 04:21:26;;;;;;;19.70;15.70;;;;;;;;;;5073049;28;20430;-48
2024/01/18 04:23:54;;;;;;;22.50;16.83;;;;;;;;;;5072923;28;20776;-47
2024/01/18 04:26:22;;;;;;;22.03;16.43;;;;;;;;;;5072887;28;20567;-48
2024/01/18 04:28:48;;;;;;;19.60;16.17;;;;;;;;;;5072838;28;20847;-48
2024/01/18 04:31:14;;;;;;;19.90;15.20;;;;;;;;;;5072955;28;20426;-48
2024/01/18 04:33:40;;;;;;;21.77;16.00;;;;;;;;;;5072542;28;20234;-48
2024/01/18 04:36:06;;;;;;;22.37;15.53;;;;;;;;;;5072726;28;20430;-48
2024/01/18 04:38:32;;;;;;;20.50;14.83;;;;;;;;;;5072637;28;20649;-47
2024/01/18 04:40:58;;;;;;;19.07;15.00;;;;;;;;;;5072771;28;20441;-48
2024/01/18 04:43:25;;;;;;;18.70;14.33;;;;;;;;;;5072488;28;20491;-48
2024/01/18 04:45:51;;;;;;;17.27;13.60;;;;;;;;;;5072289;28;20818;-48
2024/01/18 04:48:17;;;;;;;19.80;15.40;;;;;;;;;;5072485;28;20442;-48
2024/01/18 04:50:43;;;;;;;16.57;14.23;;;;;;;;;;5072447;28;20422;-47
2024/01/18 04:53:09;;;;;;;16.87;14.10;;;;;;;;;;5072406;28;20887;-47
2024/01/18 04:55:35;;;;;;;21.23;15.07;;;;;;;;;;5072390;28;20227;-48
2024/01/18 04:58:01;;;;;;;19.63;15.63;;;;;;;;;;5072385;28;20203;-48
2024/01/18 05:00:29;;;;;;;22.07;14.77;;;;;;;;;;5072357;28;20199;-48
2024/01/18 05:02:55;;;;;;;19.17;15.50;;;;;;;;;;5072062;28;20491;-48
2024/01/18 05:05:21;;;;;;;20.73;15.40;;;;;;;;;;5072138;28;20918;-48
2024/01/18 05:07:47;;;;;;;22.07;15.30;;;;;;;;;;5071961;28;20525;-48
2024/01/18 05:10:13;;;;;;;23.10;16.80;;;;;;;;;;5072224;28;20425;-48
2024/01/18 05:12:40;;;;;;;20.03;15.67;;;;;;;;;;5071621;28;20235;-47
2024/01/18 05:15:07;;;;;;;21.97;17.10;;;;;;;;;;5072102;28;20716;-48
2024/01/18 05:17:35;;;;;;;22.97;17.43;;;;;;;;;;5071700;28;20548;-48
2024/01/18 05:20:02;;;;;;;20.03;15.07;;;;;;;;;;5072101;28;20476;-48
2024/01/18 05:22:29;;;;;;;17.87;15.20;;;;;;;;;;5071925;28;20479;-47
2024/01/18 05:24:56;;;;;;;18.73;15.50;;;;;;;;;;5071837;28;20505;-47
2024/01/18 05:27:22;;;;;;;21.87;17.33;;;;;;;;;;5071913;28;20438;-47
2024/01/18 05:29:48;;;;;;;22.27;16.63;;;;;;;;;;5071717;28;20524;-48
2024/01/18 05:32:14;;;;;;;19.10;16.47;;;;;;;;;;5071820;28;20466;-47
2024/01/18 05:34:42;;;;;;;20.50;17.20;;;;;;;;;;5071697;28;20942;-48
2024/01/18 05:37:08;;;;;;;21.73;17.13;;;;;;;;;;5071701;28;20443;-48
2024/01/18 05:39:34;;;;;;;21.07;16.90;;;;;;;;;;5071667;28;20437;-48
2024/01/18 05:42:00;;;;;;;20.57;16.80;;;;;;;;;;5071685;28;20869;-48
2024/01/18 05:44:26;;;;;;;18.40;15.90;;;;;;;;;;5071466;28;20653;-48
2024/01/18 05:46:52;;;;;;;19.40;16.27;;;;;;;;;;5071466;28;20432;-48
2024/01/18 05:49:18;;;;;;;23.83;16.80;;;;;;;;;;5071665;28;20430;-47
2024/01/18 05:51:45;;;;;;;16.83;14.87;;;;;;;;;;5071475;28;20737;-47
2024/01/18 05:54:11;;;;;;;20.00;15.83;;;;;;;;;;5071435;28;20293;-48
2024/01/18 05:56:37;;;;;;;18.13;15.33;;;;;;;;;;5071457;28;20521;-48
2024/01/18 05:59:03;;;;;;;20.50;16.13;;;;;;;;;;5071466;28;20465;-48
2024/01/18 06:01:29;;;;;;;18.67;15.10;;;;;;;;;;5071619;28;20698;-47
2024/01/18 06:03:55;;;;;;;20.53;16.53;;;;;;;;;;5071473;28;20231;-48
2024/01/18 06:06:21;;;;;;;20.63;17.63;;;;;;;;;;5071412;28;20198;-48
2024/01/18 06:08:49;;;;;;;21.83;18.17;;;;;;;;;;5071332;28;20227;-48
2024/01/18 06:11:15;;;;;;;22.93;18.70;;;;;;;;;;5071422;28;20677;-48
2024/01/18 06:13:41;;;;;;;21.07;16.97;;;;;;;;;;5068923;28;20573;-48
2024/01/18 06:16:07;;;;;;;22.20;17.67;;;;;;;;;;5070704;28;20812;-48
2024/01/18 06:18:33;;;;;;;22.97;17.50;;;;;;;;;;5070243;28;20239;-48
2024/01/18 06:20:59;;;;;;;19.00;16.03;;;;;;;;;;5069707;28;20887;-48
2024/01/18 06:23:25;;;;;;;19.90;16.83;;;;;;;;;;5068601;28;20202;-50
2024/01/18 06:25:52;;;;;;;20.10;15.93;;;;;;;;;;5070949;28;20187;-48
2024/01/18 06:28:18;;;;;;;26.70;18.20;;;;;;;;;;5070935;28;20204;-48
2024/01/18 06:30:44;;;;;;;25.90;19.37;;;;;;;;;;5070891;28;20428;-47
2024/01/18 06:33:11;;;;;;;22.40;17.17;;;;;;;;;;5070556;28;20235;-46
2024/01/18 06:35:37;;;;;;;20.83;17.93;;;;;;;;;;5070882;28;20549;-46
2024/01/18 06:38:03;;;;;;;23.37;18.37;;;;;;;;;;5070921;28;20430;-46
2024/01/18 06:40:29;;;;;;;22.83;18.43;;;;;;;;;;5074649;28;20438;-47
2024/01/18 06:42:57;;;;;;;27.90;20.50;;;;;;;;;;5072745;28;20434;-46
2024/01/18 06:45:22;;;;;;;29.77;21.93;;;;;;;;;;5060775;28;20947;-46
2024/01/18 06:47:48;;;;;;;46.33;33.57;;;;;;;;;;5060968;28;20440;-47
2024/01/18 06:50:16;;;;;;;37.40;26.50;;;;;;;;;;5060999;28;20538;-47
2024/01/18 06:52:42;;;;;;;31.77;23.30;;;;;;;;;;5060935;28;20224;-46
2024/01/18 06:55:08;;;;;;;22.87;19.90;;;;;;;;;;5060689;28;20446;-46
2024/01/18 06:57:34;;;;;;;28.87;21.53;;;;;;;;;;5060698;28;20900;-46
2024/01/18 07:00:03;;;;;;;34.23;26.33;;;;;;;;;;5058907;28;20450;-46
2024/01/18 07:02:29;;;;;;;33.63;25.07;;;;;;;;;;5060999;28;20238;-46
2024/01/18 07:04:55;;;;;;;32.43;23.83;;;;;;;;;;5060524;28;20437;-50
2024/01/18 07:07:23;;;;;;;26.20;22.60;;;;;;;;;;5060561;28;20208;-47
2024/01/18 07:09:49;;;;;;;28.17;22.23;;;;;;;;;;5060870;28;20849;-46
2024/01/18 07:12:16;;;;;;;34.93;26.17;;;;;;;;;;5058923;28;20473;-46
2024/01/18 07:14:42;;;;;;;33.57;25.43;;;;;;;;;;5060640;28;20527;-46
2024/01/18 07:17:13;;;;;;;25.17;19.93;;;;;;;;;;5060491;28;20492;-46
2024/01/18 07:19:39;;;;;;;23.57;19.03;;;;;;;;;;5060564;28;20441;-46
2024/01/18 07:22:05;;;;;;;21.40;17.83;;;;;;;;;;5060037;28;20430;-46
2024/01/18 07:24:31;;;;;;;25.23;19.60;;;;;;;;;;5060387;28;20477;-46
2024/01/18 07:26:57;;;;;;;23.27;18.90;;;;;;;;;;5059575;28;20195;-47
2024/01/18 07:29:23;;;;;;;25.57;20.63;;;;;;;;;;5059780;28;20952;-46
2024/01/18 07:31:49;;;;;;;29.60;21.23;;;;;;;;;;5060245;28;20940;-46
2024/01/18 07:34:17;;;;;;;28.27;21.70;;;;;;;;;;5060583;28;20555;-47
2024/01/18 07:36:46;;;;;;;25.53;20.67;;;;;;;;;;5060163;28;20444;-47
2024/01/18 07:39:12;;;;;;;26.40;19.87;;;;;;;;;;5060490;28;20487;-47
2024/01/18 07:41:38;;;;;;;27.60;20.63;;;;;;;;;;5060115;28;20444;-47
2024/01/18 07:44:04;;;;;;;26.50;20.57;;;;;;;;;;5059853;28;20445;-48
2024/01/18 07:46:30;;;;;;;29.73;23.30;;;;;;;;;;5060162;28;20199;-47
2024/01/18 07:48:56;;;;;;;26.90;20.97;;;;;;;;;;5059933;28;20615;-48
2024/01/18 07:51:25;;;;;;;24.63;18.90;;;;;;;;;;5059062;28;20203;-48
2024/01/18 07:53:53;;;;;;;27.17;21.30;;;;;;;;;;5059871;28;20223;-49
2024/01/18 07:56:19;;;;;;;25.20;21.03;;;;;;;;;;5060066;28;20492;-49
2024/01/18 07:58:45;;;;;;;26.23;19.93;;;;;;;;;;5060068;28;20837;-47
2024/01/18 08:01:15;;;;;;;36.40;26.10;;;;;;;;;;5059974;28;21125;-48
2024/01/18 08:03:41;;;;;;;33.67;25.33;;;;;;;;;;5059796;28;20917;-48
2024/01/18 08:06:07;;;;;;;29.77;23.57;;;;;;;;;;5061533;28;20517;-48
2024/01/18 08:08:37;;;;;;;30.93;24.50;;;;;;;;;;5059877;28;20428;-49
2024/01/18 08:11:04;;;;;;;28.23;24.07;;;;;;;;;;5059555;28;20290;-47
2024/01/18 08:13:30;;;;;;;29.53;24.37;;;;;;;;;;5059628;28;20504;-48
2024/01/18 08:15:57;;;;;;;31.60;24.47;;;;;;;;;;5061233;28;20943;-47
2024/01/18 08:18:23;;;;;;;29.77;22.17;;;;;;;;;;5059331;28;20665;-49
2024/01/18 08:20:50;;;;;;;24.70;18.60;;;;;;;;;;5059512;28;20426;-48
2024/01/18 08:23:16;;;;;;;21.13;17.20;;;;;;;;;;5057856;28;20436;-48
2024/01/18 08:25:44;;;;;;;20.43;16.57;;;;;;;;;;5061027;28;20426;-49
2024/01/18 08:28:13;;;;;;;21.63;17.33;;;;;;;;;;5059629;28;20204;-48
2024/01/18 08:30:41;;;;;;;19.63;16.77;;;;;;;;;;5059426;28;20802;-49
2024/01/18 08:33:10;;;;;;;21.13;16.90;;;;;;;;;;5059226;28;20486;-48
2024/01/18 08:35:37;;;;;;;17.10;15.17;;;;;;;;;;5059202;28;20434;-47
2024/01/18 08:38:03;;;;;;;18.67;14.83;;;;;;;;;;5060729;28;20528;-48
2024/01/18 08:40:29;;;;;;;20.60;15.17;;;;;;;;;;5059299;28;20544;-49
2024/01/18 08:42:57;;;;;;;19.80;16.53;;;;;;;;;;5060709;28;20944;-48
2024/01/18 08:45:23;;;;;;;23.00;17.67;;;;;;;;;;5059193;28;20545;-49
2024/01/18 08:47:49;;;;;;;25.33;18.23;;;;;;;;;;5058888;28;20430;-49
2024/01/18 08:50:15;;;;;;;23.53;18.50;;;;;;;;;;5059035;28;20434;-48
2024/01/18 08:52:41;;;;;;;24.10;18.43;;;;;;;;;;5058631;28;20433;-48
2024/01/18 08:55:07;;;;;;;24.00;19.87;;;;;;;;;;5058810;28;21051;-49
2024/01/18 08:57:33;;;;;;;26.67;20.83;;;;;;;;;;5058736;28;20719;-48
2024/01/18 09:00:00;;;;;;;22.60;20.00;;;;;;;;;;5058651;28;20430;-48
2024/01/18 09:02:26;;;;;;;24.13;19.00;;;;;;;;;;5058353;28;20438;-49
2024/01/18 09:04:53;;;;;;;25.83;20.30;;;;;;;;;;5056975;28;21154;-48
2024/01/18 09:07:19;;;;;;;21.17;18.30;;;;;;;;;;5058557;28;20453;-48
2024/01/18 09:09:45;;;;;;;20.20;16.27;;;;;;;;;;5058609;28;20430;-48
2024/01/18 09:12:11;;;;;;;21.37;16.80;;;;;;;;;;5058338;28;20812;-47
2024/01/18 09:14:37;;;;;;;15.80;13.03;;;;;;;;;;5060131;28;20982;-48
2024/01/18 09:17:04;;;;;;;14.87;12.40;;;;;;;;;;5060007;28;20257;-48
2024/01/18 09:19:30;;;;;;;16.57;11.53;;;;;;;;;;5058661;28;20206;-50
2024/01/18 09:21:57;;;;;;;16.90;12.50;;;;;;;;;;5059188;28;20958;-49
2024/01/18 09:24:23;;;;;;;17.20;14.77;;;;;;;;;;5059997;28;20287;-49
2024/01/18 09:26:49;;;;;;;15.40;11.80;;;;;;;;;;5058139;28;20249;-49
2024/01/18 09:29:15;;;;;;;14.17;11.13;;;;;;;;;;5060103;28;20203;-49
2024/01/18 09:31:41;;;;;;;11.27;9.97;;;;;;;;;;5058191;28;20917;-49
2024/01/18 09:34:08;;;;;;;12.10;10.80;;;;;;;;;;5061745;28;20239;-49
2024/01/18 09:36:34;;;;;;;12.30;10.50;;;;;;;;;;5059872;28;20204;-49
2024/01/18 09:39:00;;;;;;;12.43;9.40;;;;;;;;;;5059823;28;20248;-49
2024/01/18 09:41:29;;;;;;;13.60;10.20;;;;;;;;;;5058181;28;20210;-49
2024/01/18 09:43:57;;;;;;;11.77;9.63;;;;;;;;;;5058064;28;20195;-49
2024/01/18 09:46:23;;;;;;;12.37;9.17;;;;;;;;;;5058023;28;20187;-48
2024/01/18 09:48:49;;;;;;;10.67;9.47;;;;;;;;;;5058120;28;20199;-46
2024/01/18 09:51:19;;;;;;;11.70;9.10;;;;;;;;;;5069075;28;20210;-46
2024/01/18 09:53:48;;;;;;;10.17;8.87;;;;;;;;;;5071576;28;20643;-46
2024/01/18 09:56:18;;;;;;;11.33;9.80;;;;;;;;;;5071479;28;20677;-46
2024/01/18 09:58:44;;;;;;;11.03;9.27;;;;;;;;;;5071614;28;20277;-46
2024/01/18 10:01:12;;;;;;;12.33;9.60;;;;;;;;;;5071066;28;20219;-46
2024/01/18 10:03:38;;;;;;;12.10;9.07;;;;;;;;;;5071330;28;20191;-47
2024/01/18 10:06:04;;;;;;;9.87;8.53;;;;;;;;;;5071223;28;20209;-47
2024/01/18 10:08:32;;;;;;;9.07;8.17;;;;;;;;;;5071629;28;20222;-46
2024/01/18 10:10:58;;;;;;;10.00;8.63;;;;;;;;;;5071180;28;20212;-47
2024/01/18 10:13:24;;;;;;;9.87;8.30;;;;;;;;;;5071909;28;20243;-47
2024/01/18 10:15:50;;;;;;;11.10;8.33;;;;;;;;;;5075443;28;20279;-47
2024/01/18 10:18:16;;;;;;;11.30;8.30;;;;;;;;;;5075251;28;20323;-46
2024/01/18 10:20:44;;;;;;;10.33;9.23;;;;;;;;;;5075582;28;20709;-46
2024/01/18 10:23:11;;;;;;;10.10;9.00;;;;;;;;;;5075004;28;20195;-47
2024/01/18 10:25:39;;;;;;;10.70;9.60;;;;;;;;;;5074976;28;20214;-47
2024/01/18 10:28:05;;;;;;;8.60;7.67;;;;;;;;;;5073145;28;20203;-48
2024/01/18 10:30:36;;;;;;;8.50;7.53;;;;;;;;;;5073906;28;20266;-50
2024/01/18 10:33:02;;;;;;;10.90;8.40;;;;;;;;;;5075145;28;20263;-50
2024/01/18 10:35:28;;;;;;;10.87;7.37;;;;;;;;;;5075425;28;20209;-51
2024/01/18 10:38:02;;;;;;;9.53;7.60;;;;;;;;;;5075257;28;20206;-52
2024/01/18 10:40:30;;;;;;;8.83;7.93;;;;;;;;;;5075297;28;20220;-50
2024/01/18 10:42:57;;;;;;;9.83;7.97;;;;;;;;;;5075040;28;20201;-50
2024/01/18 10:45:23;;;;;;;9.67;7.97;;;;;;;;;;5074795;28;20674;-50
2024/01/18 10:47:49;;;;;;;9.43;7.47;;;;;;;;;;5073102;28;20246;-50
2024/01/18 10:50:16;;;;;;;10.17;7.77;;;;;;;;;;5074252;28;20657;-50
2024/01/18 10:52:45;;;;;;;9.23;6.67;;;;;;;;;;5074430;28;20200;-50
2024/01/18 10:55:12;;;;;;;8.73;7.57;;;;;;;;;;5074279;28;20199;-50
2024/01/18 10:57:38;;;;;;;7.67;6.80;;;;;;;;;;5072742;28;20260;-50
2024/01/18 11:00:08;;;;;;;8.43;7.00;;;;;;;;;;5074243;28;20640;-52
2024/01/18 11:02:39;;;;;;;7.67;6.50;;;;;;;;;;5074049;28;20212;-50
2024/01/18 11:05:07;;;;;;;8.70;6.30;;;;;;;;;;5073969;28;20567;-49
2024/01/18 11:07:33;;;;;;;7.63;6.20;;;;;;;;;;5072581;28;20199;-49
2024/01/18 11:09:59;;;;;;;6.87;5.87;;;;;;;;;;5074308;28;20286;-50
2024/01/18 11:12:26;;;;;;;6.50;5.43;;;;;;;;;;5074123;28;20239;-50
2024/01/18 11:14:52;;;;;;;6.27;5.53;;;;;;;;;;5072351;28;20327;-51
2024/01/18 11:17:21;;;;;;;6.53;5.50;;;;;;;;;;5074082;28;20401;-50
2024/01/18 11:19:49;;;;;;;6.17;5.20;;;;;;;;;;5073968;28;20200;-50
2024/01/18 11:22:23;;;;;;;6.07;5.20;;;;;;;;;;5073902;28;20209;-51
2024/01/18 11:24:49;;;;;;;5.87;4.57;;;;;;;;;;5073689;28;20198;-50
2024/01/18 11:27:18;;;;;;;6.07;4.93;;;;;;;;;;5074129;28;20234;-50
2024/01/18 11:29:45;;;;;;;6.30;5.00;;;;;;;;;;5073862;28;20575;-49
2024/01/18 11:32:13;;;;;;;5.63;4.50;;;;;;;;;;5070381;28;20214;-50
2024/01/18 11:34:40;;;;;;;5.17;4.63;;;;;;;;;;5073554;28;20231;-51
2024/01/18 11:37:10;;;;;;;4.87;4.27;;;;;;;;;;5071750;28;20241;-50
2024/01/18 11:39:55;;;;;;;5.00;4.43;;;;;;;;;;5072361;28;20546;-51
2024/01/18 11:42:22;;;;;;;4.30;3.90;;;;;;;;;;5072134;28;20192;-50
2024/01/18 11:44:49;;;;;;;3.80;3.40;;;;;;;;;;5069028;28;20294;-51
2024/01/18 11:47:16;;;;;;;4.77;3.70;;;;;;;;;;5070556;28;20236;-50
2024/01/18 11:49:44;;;;;;;5.83;5.27;;;;;;;;;;5070779;28;20229;-50
2024/01/18 11:52:10;;;;;;;5.27;4.77;;;;;;;;;;5068740;28;20200;-51
2024/01/18 11:54:37;;;;;;;7.47;6.73;;;;;;;;;;5072133;28;20778;-51
2024/01/18 11:57:04;;;;;;;4.47;4.07;;;;;;;;;;5068585;28;20206;-50
2024/01/18 11:59:31;;;;;;;5.07;4.63;;;;;;;;;;5070490;28;20199;-49
2024/01/18 12:01:57;;;;;;;4.20;3.80;;;;;;;;;;5070307;28;20297;-50
2024/01/18 12:04:23;;;;;;;3.70;3.23;;;;;;;;;;5073494;28;20237;-51
2024/01/18 12:06:50;;;;;;;4.17;3.43;;;;;;;;;;5073663;28;20243;-50
2024/01/18 12:09:16;;;;;;;4.73;3.67;;;;;;;;;;5073573;28;20209;-49
2024/01/18 12:11:42;;;;;;;6.40;5.30;;;;;;;;;;5073580;28;20569;-50
2024/01/18 12:14:12;;;;;;;4.13;3.50;;;;;;;;;;5073304;28;20593;-50
2024/01/18 12:16:38;;;;;;;5.37;4.87;;;;;;;;;;5073353;28;20201;-50
2024/01/18 12:19:05;;;;;;;3.97;3.60;;;;;;;;;;5073243;28;20638;-50
2024/01/18 12:21:31;;;;;;;3.50;2.57;;;;;;;;;;5073328;28;20616;-50
2024/01/18 12:23:59;;;;;;;4.13;2.63;;;;;;;;;;5073234;28;20752;-50
2024/01/18 12:26:25;;;;;;;3.63;2.50;;;;;;;;;;5073377;28;20208;-49
2024/01/18 12:28:51;;;;;;;3.20;2.90;;;;;;;;;;5072933;28;20223;-49
2024/01/18 12:31:20;;;;;;;4.10;2.33;;;;;;;;;;5072995;28;20274;-49
2024/01/18 12:33:46;;;;;;;3.00;2.60;;;;;;;;;;5072890;28;20228;-49
2024/01/18 12:36:12;;;;;;;3.93;2.90;;;;;;;;;;5072395;28;20200;-50
2024/01/18 12:38:38;;;;;;;3.63;2.30;;;;;;;;;;5073098;28;20651;-49
2024/01/18 12:41:05;;;;;;;4.83;2.40;;;;;;;;;;5072832;28;20213;-49
2024/01/18 12:43:31;;;;;;;3.40;2.63;;;;;;;;;;5072974;28;20592;-49
2024/01/18 12:45:58;;;;;;;3.60;2.30;;;;;;;;;;5072815;28;20200;-49
2024/01/18 12:48:24;;;;;;;5.30;2.20;;;;;;;;;;5072446;28;20203;-49
2024/01/18 12:50:51;;;;;;;3.80;2.10;;;;;;;;;;5072561;28;20204;-49
2024/01/18 12:53:18;;;;;;;4.43;2.43;;;;;;;;;;5072480;28;20251;-49
2024/01/18 12:55:44;;;;;;;3.33;3.03;;;;;;;;;;5072769;28;20204;-49
2024/01/18 12:58:12;;;;;;;4.37;3.30;;;;;;;;;;5072496;28;20202;-49
2024/01/18 13:00:38;;;;;;;5.20;3.53;;;;;;;;;;5072646;28;20579;-49
2024/01/18 13:03:12;;;;;;;4.70;3.30;;;;;;;;;;5072360;28;20257;-48
2024/01/18 13:05:41;;;;;;;3.80;3.20;;;;;;;;;;5072451;28;20207;-48
2024/01/18 13:08:08;;;;;;;3.87;2.47;;;;;;;;;;5072231;28;20203;-49
2024/01/18 13:10:35;;;;;;;7.63;5.17;;;;;;;;;;5072486;28;20211;-48
2024/01/18 13:13:03;;;;;;;42.23;33.00;;;;;;;;;;5072123;28;20239;-48
2024/01/18 13:15:31;;;;;;;58.57;49.60;;;;;;;;;;5072312;28;20739;-48
2024/01/18 13:17:57;;;;;;;9.73;7.07;;;;;;;;;;5072113;28;20285;-49
2024/01/18 13:20:23;;;;;;;6.63;5.67;;;;;;;;;;5072047;28;20199;-49
2024/01/18 13:22:49;;;;;;;4.60;4.20;;;;;;;;;;5072142;28;20714;-48
2024/01/18 13:25:15;;;;;;;3.90;3.50;;;;;;;;;;5070214;28;20196;-49
2024/01/18 13:27:42;;;;;;;4.97;3.70;;;;;;;;;;5077211;28;20274;-49
2024/01/18 13:30:09;;;;;;;5.13;4.53;;;;;;;;;;5072312;28;20199;-48
2024/01/18 13:32:37;;;;;;;5.30;4.60;;;;;;;;;;5071545;28;20223;-48
2024/01/18 13:35:03;;;;;;;6.07;4.77;;;;;;;;;;5071206;28;20232;-49
2024/01/18 13:37:29;;;;;;;7.63;5.43;;;;;;;;;;5071671;28;20200;-49
2024/01/18 13:39:55;;;;;;;6.57;5.10;;;;;;;;;;5071473;28;20226;-48
2024/01/18 13:42:21;;;;;;;5.00;4.60;;;;;;;;;;5071259;28;20200;-48
2024/01/18 13:44:47;;;;;;;5.60;4.60;;;;;;;;;;5071208;28;20223;-48
2024/01/18 13:47:13;;;;;;;84.43;61.27;;;;;;;;;;5071699;28;20204;-49
2024/01/18 13:49:41;;;;;;;109.87;86.13;;;;;;;;;;5071609;28;20278;-48
2024/01/18 13:52:07;;;;;;;20.03;15.20;;;;;;;;;;5071574;28;20210;-48
2024/01/18 13:54:33;;;;;;;11.10;7.77;;;;;;;;;;5071593;28;20674;-49
2024/01/18 13:56:59;;;;;;;16.30;13.87;;;;;;;;;;5071849;28;20226;-48
2024/01/18 13:59:25;;;;;;;13.00;9.10;;;;;;;;;;5071552;28;20223;-48
2024/01/18 14:01:51;;;;;;;6.73;5.10;;;;;;;;;;5071689;28;20218;-48
2024/01/18 14:04:17;;;;;;;5.03;3.33;;;;;;;;;;5071735;28;20657;-48
2024/01/18 14:06:44;;;;;;;5.27;3.03;;;;;;;;;;5069837;28;20203;-48
2024/01/18 14:09:10;;;;;;;4.40;2.60;;;;;;;;;;5071160;28;20188;-48
2024/01/18 14:11:36;;;;;;;3.20;2.43;;;;;;;;;;5070993;28;20231;-48
2024/01/18 14:14:03;;;;;;;3.93;2.80;;;;;;;;;;5071114;28;20215;-48
2024/01/18 14:16:29;;;;;;;4.47;2.80;;;;;;;;;;5071093;28;20207;-48
2024/01/18 14:18:55;;;;;;;3.70;2.13;;;;;;;;;;5071545;28;20197;-48